Dennis, MA

2:54 PM EST on January 27, 2015 (GMT -0500)
Scargo Hill Dennis MA | Change Station
CLOSE
Current Station
Personal Weather Station
Location: Dennis, MA
Elevation: 133 ft
Nearby Weather Stations

Elev 133 ft 41.74 °N, 70.18 °W | Updated 1 second ago

Snow
Snow
22.6 °F
Feels Like 10 °F
N
13.0
Wind Variable Wind from West
Gusts 36.5 mph

Today
High -- | Low -- °F
--% Chance of Precip.
Yesterday
High -- | Low -- °F
Precip. -- in
6:57 AM 4:49 PM
First Quarter, 57% visible
Pressure 29.23 in
Visibility 0.2 miles
Clouds
Windchill 10 °F
Dew Point 22 °F
Humidity 99%
Rainfall 0.32 in
Snow Depth Not available.
UV Not available.
Pollen .10 out of 12
Air Quality Not available.
Flu Activity Not available.
METAR KHYA 271856Z 35027G44KT M1/4SM +SN BLSN FZFG VV003 M04/M06 A2922 RMK AO2 PK WND 35049/1838 SLP897 P0003 T10391061 $

More Conditions Fewer Conditions

Pressure 29.23 in
Visibility 0.2 miles
Clouds
Windchill 10 °F
Dew Point 22 °F
Humidity 99%
Rainfall 0.32 in
Snow Depth Not available.
UV Not available.
Pollen .10 out of 12
Air Quality Not available.
Flu Activity Not available.
METAR KHYA 271856Z 35027G44KT M1/4SM +SN BLSN FZFG VV003 M04/M06 A2922 RMK AO2 PK WND 35049/1838 SLP897 P0003 T10391061 $

More Conditions Fewer Conditions

10-Day Weather Forecast

Almanac

Astronomy

Jan. 27, 2015 Rise Set
Actual Time
Civil Twilight
Nautical Twilight
Astronomical Twilight
Moon
Length of Visible Light
Length of Day
Tomorrow will be .
, % of the Moon is Illuminated

Today's Extremes

State Highs State Lows

Community

WunderPhotos

Upload Photos

1,790,837 photos uploaded!

WunderBlogs® & News

Nearby

Air Quality

  Air Quality AQ Index Pollutant
Not available.

Snow Depth

Station Depth Elevation

Earthquake Activity

City Distance Mag. Time & Date
Minimum magnitude displayed is 2.5.

Coastal Water Temperatures

Place Temperature

Nearby Weather Stations